Auxvasse, MO

11:11 PM CDT on May 04, 2015 (GMT -0500)
Near Lakeview Lake | | Change Station
CLOSE
Current Station
Personal Weather Station
Location: Mexico, MO
Elevation: 817 ft
Nearby Weather Stations

Elev 817 ft 39.16 °N, 91.89 °W | Updated 11 seconds ago

Clear
Clear
69.7 °F
Feels Like 69.7 °F
N
0.0
Wind Variable Wind from SSE
Gusts 1.0 mph

Today
High -- | Low -- °F
--% Chance of Precip.
Yesterday
High -- | Low -- °F
Precip. -- in
6:06 AM 8:03 PM
Full, 99% visible
Pressure 30.07 in
Visibility 10.0 miles
Clouds Mostly Cloudy 7000 ft
Dew Point 61 °F
Humidity 73%
Rainfall in
Snow Depth Not available.
UV 0 out of 12
Pollen 10.10 out of 12
Air Quality Not available.
Flu Activity Sporadic
METAR KCOU 050354Z AUTO 18007KT 10SM BKN070 21/15 A3009 RMK AO2 SLP182 T02060150

More Conditions Fewer Conditions

Pressure 30.07 in
Visibility 10.0 miles
Clouds Mostly Cloudy 7000 ft
Dew Point 61 °F
Humidity 73%
Rainfall in
Snow Depth Not available.
UV 0 out of 12
Pollen 10.10 out of 12
Air Quality Not available.
Flu Activity Sporadic
METAR KCOU 050354Z AUTO 18007KT 10SM BKN070 21/15 A3009 RMK AO2 SLP182 T02060150

More Conditions Fewer Conditions

Nepal has a long way to go to dig out and rebuild from a devastating earthquake. We have teamed up with several charities and organizations to make contributing to the relief effort as easy as possible.
How you can help: Portlight Strategies | Red Cross

10-Day Weather Forecast

Almanac

Astronomy

May. 04, 2015 Rise Set
Actual Time
Civil Twilight
Nautical Twilight
Astronomical Twilight
Moon
Length of Visible Light
Length of Day
Tomorrow will be .
, % of the Moon is Illuminated

Today's Extremes

State Highs State Lows

Community

WunderPhotos

Upload Photos

1,818,814 photos uploaded!

WunderBlogs® & News

Nearby

Air Quality

  Air Quality AQ Index Pollutant
Not available.

Snow Depth

Station Depth Elevation

Earthquake Activity

City Distance Mag. Time & Date
Minimum magnitude displayed is 2.5.

Coastal Water Temperatures

Place Temperature

Stations

Nearby Weather Stations

Station Location Temp. Windchill Dew Point Humidity Wind Precip. Elev Updated Type